Time;durP1;ratioP1;P1;durP2;ratioP2;P2;SDS_P1;SDS_P2;PMS_P1;PMS_P2;Temp;Humidity;BMP_temperature;BMP_pressure;BME280_temperature;BME280_humidity;BME280_pressure;Samples;Min_cycle;Max_cycle;Signal;HPM_P1;HPM_P2
2024/04/05 00:01:29;;;;;;;12.65;5.13;;;;;;;7.60;100.00;92952.94;4882418;29;20057;-80
2024/04/05 00:03:56;;;;;;;9.18;5.10;;;;;;;7.57;100.00;92950.84;4880696;29;20084;-81
2024/04/05 00:06:23;;;;;;;15.57;5.28;;;;;;;7.58;100.00;92946.41;4882377;29;20463;-80
2024/04/05 00:08:48;;;;;;;14.38;5.22;;;;;;;7.54;100.00;92948.75;4851134;29;20048;-80
2024/04/05 00:11:15;;;;;;;8.07;4.85;;;;;;;7.52;100.00;92948.25;4883438;29;20045;-80
2024/04/05 00:13:41;;;;;;;13.48;5.10;;;;;;;7.49;100.00;92948.72;4884064;29;20037;-81
2024/04/05 00:16:09;;;;;;;10.60;5.50;;;;;;;7.53;100.00;92943.81;4885137;29;20078;-79
2024/04/05 00:18:35;;;;;;;13.23;5.65;;;;;;;7.69;100.00;92946.19;4867110;29;20507;-81
2024/04/05 00:21:01;;;;;;;16.00;6.18;;;;;;;7.87;100.00;92955.34;4882816;29;20374;-80
2024/04/05 00:23:28;;;;;;;16.92;5.65;;;;;;;7.84;100.00;92960.31;4866605;29;20041;-79
2024/04/05 00:26:00;;;;;;;16.35;6.35;;;;;;;7.84;100.00;92952.50;4882908;29;20163;-80
2024/04/05 00:28:27;;;;;;;21.27;5.93;;;;;;;7.75;100.00;92947.00;4882476;29;20053;-80
2024/04/05 00:30:54;;;;;;;17.08;6.43;;;;;;;7.75;100.00;92948.81;4849987;29;20069;-80
2024/04/05 00:33:21;;;;;;;15.93;6.03;;;;;;;7.71;100.00;92951.94;4882091;29;20629;-80
2024/04/05 00:35:54;;;;;;;14.90;6.03;;;;;;;7.67;100.00;92956.06;4881838;29;20052;-80
2024/04/05 00:38:23;;;;;;;13.90;6.40;;;;;;;7.69;100.00;92953.22;4883377;29;20128;-80
2024/04/05 00:40:49;;;;;;;16.20;6.38;;;;;;;7.68;100.00;92954.28;4866422;29;20047;-80
2024/04/05 00:43:14;;;;;;;15.00;5.82;;;;;;;7.64;100.00;92955.81;4885359;29;20041;-80
2024/04/05 00:45:42;;;;;;;16.90;6.00;;;;;;;7.59;100.00;92958.38;4884467;29;20029;-80
2024/04/05 00:48:08;;;;;;;18.45;5.88;;;;;;;7.54;100.00;92961.75;4868148;29;20088;-80
2024/04/05 00:50:36;;;;;;;12.10;5.55;;;;;;;7.51;100.00;92962.28;4884823;29;20033;-80
2024/04/05 00:53:02;;;;;;;15.85;6.20;;;;;;;7.48;100.00;92968.00;4867696;29;20053;-80
2024/04/05 00:55:33;;;;;;;14.52;6.05;;;;;;;7.48;100.00;92962.81;4833858;29;20537;-80
2024/04/05 00:58:02;;;;;;;21.25;6.55;;;;;;;7.47;100.00;92958.63;4865615;29;20037;-80
2024/04/05 01:00:29;;;;;;;18.48;6.05;;;;;;;7.49;100.00;92956.53;4865485;29;20038;-80
2024/04/05 01:02:55;;;;;;;20.33;6.95;;;;;;;7.49;100.00;92959.16;4864843;29;20101;-80
2024/04/05 01:05:21;;;;;;;13.13;6.15;;;;;;;7.53;100.00;92955.00;4884200;29;20155;-80
2024/04/05 01:07:48;;;;;;;14.70;5.90;;;;;;;7.51;100.00;92941.44;4901954;29;20067;-79
2024/04/05 01:10:14;;;;;;;14.20;5.78;;;;;;;7.54;100.00;92950.56;4901771;29;20406;-80
2024/04/05 01:12:40;;;;;;;16.80;6.10;;;;;;;7.54;100.00;92940.91;4902519;29;20046;-80
2024/04/05 01:15:06;;;;;;;13.63;5.82;;;;;;;7.54;100.00;92951.34;4902649;29;20037;-80
2024/04/05 01:17:34;;;;;;;19.52;6.55;;;;;;;7.55;100.00;92942.50;4902169;29;20041;-80
2024/04/05 01:20:03;;;;;;;10.93;6.68;;;;;;;7.55;100.00;92945.09;4885891;29;20514;-81
2024/04/05 01:22:34;;;;;;;17.05;6.20;;;;;;;7.56;100.00;92946.66;4902748;29;20451;-81
2024/04/05 01:25:00;;;;;;;16.65;6.68;;;;;;;7.55;100.00;92942.50;4901969;29;20040;-80
2024/04/05 01:27:26;;;;;;;14.55;6.47;;;;;;;7.55;100.00;92942.50;4855666;29;20032;-81
2024/04/05 01:29:51;;;;;;;18.35;6.28;;;;;;;7.53;100.00;92933.38;4889607;29;20037;-81
2024/04/05 01:32:17;;;;;;;15.52;6.88;;;;;;;7.55;100.00;92946.94;4883290;29;20029;-80
2024/04/05 01:34:43;;;;;;;17.42;6.60;;;;;;;7.53;100.00;92939.38;4883551;29;20076;-79
2024/04/05 01:37:09;;;;;;;15.27;6.82;;;;;;;7.55;100.00;92942.50;4883254;29;20037;-80
2024/04/05 01:39:37;;;;;;;13.55;6.40;;;;;;;7.55;100.00;92937.28;4851249;29;20057;-80
2024/04/05 01:42:03;;;;;;;18.15;6.70;;;;;;;7.54;100.00;92930.50;4882208;29;20088;-80
2024/04/05 01:44:28;;;;;;;14.80;6.22;;;;;;;7.53;100.00;92938.59;4866307;29;20616;-80
2024/04/05 01:46:54;;;;;;;16.92;6.30;;;;;;;7.57;100.00;92939.66;4851484;29;20040;-80
2024/04/05 01:49:20;;;;;;;13.13;6.35;;;;;;;7.62;100.00;92939.66;4883529;29;20104;-79
2024/04/05 01:51:46;;;;;;;14.38;6.20;;;;;;;7.64;100.00;92946.19;4867017;29;20040;-80
2024/04/05 01:54:12;;;;;;;14.85;6.43;;;;;;;7.60;100.00;92934.69;4883210;29;20044;-80
2024/04/05 01:56:40;;;;;;;21.25;6.50;;;;;;;7.61;100.00;92940.69;4866385;29;20060;-80
2024/04/05 01:59:07;;;;;;;17.95;6.25;;;;;;;7.63;100.00;92939.41;4884856;29;20112;-81
2024/04/05 02:01:36;;;;;;;20.70;6.75;;;;;;;7.68;100.00;92938.63;4867972;29;20052;-80
2024/04/05 02:04:02;;;;;;;23.38;7.43;;;;;;;7.68;100.00;92941.25;4883705;29;20060;-80
2024/04/05 02:06:27;;;;;;;15.23;6.20;;;;;;;7.65;100.00;92947.72;4866085;29;20347;-80
2024/04/05 02:08:53;;;;;;;15.43;6.18;;;;;;;7.61;100.00;92946.69;4883948;29;20460;-80
2024/04/05 02:11:19;;;;;;;14.80;7.03;;;;;;;7.58;100.00;92952.41;4867064;29;20049;-80
2024/04/05 02:13:44;;;;;;;12.15;6.15;;;;;;;7.51;100.00;92954.47;4883848;29;20088;-81
2024/04/05 02:16:10;;;;;;;12.80;6.60;;;;;;;7.51;100.00;92964.88;4867089;29;20041;-80
2024/04/05 02:18:35;;;;;;;14.63;6.47;;;;;;;7.49;100.00;92961.75;4883197;29;20076;-80
2024/04/05 02:21:01;;;;;;;15.18;6.30;;;;;;;7.47;100.00;92961.22;4883335;29;20029;-80
2024/04/05 02:23:27;;;;;;;15.25;6.90;;;;;;;7.44;100.00;92966.94;4884033;29;20109;-79
2024/04/05 02:25:53;;;;;;;11.20;6.55;;;;;;;7.40;100.00;92964.06;4865593;29;20033;-80
2024/04/05 02:28:19;;;;;;;17.25;7.30;;;;;;;7.40;100.00;92971.09;4866634;29;20041;-80
2024/04/05 02:30:45;;;;;;;24.45;7.82;;;;;;;7.36;100.00;92970.03;4882661;29;20593;-81
2024/04/05 02:33:14;;;;;;;19.75;7.82;;;;;;;7.37;100.00;92972.38;4899468;29;20112;-80
2024/04/05 02:35:39;;;;;;;17.92;8.27;;;;;;;7.34;100.00;92975.50;4901378;29;20056;-81
2024/04/05 02:38:05;;;;;;;16.45;7.75;;;;;;;7.33;100.00;92970.56;4900925;29;20532;-81
2024/04/05 02:40:32;;;;;;;15.50;7.80;;;;;;;7.31;100.00;92978.59;4901706;29;20063;-81
2024/04/05 02:42:59;;;;;;;12.60;6.70;;;;;;;7.27;100.00;92973.13;4870421;29;20545;-81
2024/04/05 02:45:25;;;;;;;13.15;6.97;;;;;;;7.25;100.00;92971.78;4901157;29;20111;-81
2024/04/05 02:47:51;;;;;;;14.00;6.75;;;;;;;7.23;100.00;92976.50;4883194;29;20047;-81
2024/04/05 02:50:17;;;;;;;16.17;7.28;;;;;;;7.22;100.00;92977.53;4900718;29;20092;-81
2024/04/05 02:52:43;;;;;;;22.60;7.32;;;;;;;7.21;100.00;92976.75;4884099;29;20048;-80
2024/04/05 02:55:08;;;;;;;14.32;6.03;;;;;;;7.18;100.00;92974.66;4900772;29;20514;-81
2024/04/05 02:57:34;;;;;;;12.43;6.70;;;;;;;7.16;100.00;92971.53;4882925;29;20053;-80
2024/04/05 03:00:05;;;;;;;13.32;6.03;;;;;;;7.09;100.00;92963.94;4883946;29;20391;-81
2024/04/05 03:02:30;;;;;;;19.63;6.00;;;;;;;7.13;100.00;92969.41;4866565;29;20506;-80
2024/04/05 03:04:56;;;;;;;10.82;6.13;;;;;;;7.11;100.00;92979.28;4880028;29;20075;-80
2024/04/05 03:07:22;;;;;;;16.70;6.10;;;;;;;7.10;100.00;92972.53;4881256;29;20047;-79
2024/04/05 03:09:47;;;;;;;16.17;6.18;;;;;;;7.06;100.00;92963.63;4865231;29;20771;-80
2024/04/05 03:12:13;;;;;;;20.75;5.65;;;;;;;7.00;100.00;92957.63;4884241;29;20406;-81
2024/04/05 03:14:39;;;;;;;14.27;5.50;;;;;;;7.03;100.00;92964.16;4900271;29;20051;-81
2024/04/05 03:17:04;;;;;;;12.68;5.95;;;;;;;7.01;100.00;92966.22;4900746;29;20132;-80
2024/04/05 03:19:30;;;;;;;13.15;5.60;;;;;;;6.96;100.00;92966.16;4881315;29;20034;-81
2024/04/05 03:21:56;;;;;;;14.93;5.75;;;;;;;6.94;100.00;92976.06;4897524;29;20051;-80
2024/04/05 03:24:21;;;;;;;15.82;6.32;;;;;;;6.94;100.00;92978.69;4883573;29;20043;-80
2024/04/05 03:26:47;;;;;;;16.65;5.28;;;;;;;6.88;100.00;92975.25;4901205;29;20089;-81
2024/04/05 03:29:14;;;;;;;10.93;5.10;;;;;;;6.87;100.00;92979.69;4895706;29;20393;-80
2024/04/05 03:31:40;;;;;;;10.52;5.05;;;;;;;6.83;100.00;92977.81;4880870;29;20541;-80
2024/04/05 03:34:07;;;;;;;10.50;5.80;;;;;;;6.79;100.00;92976.75;4866394;29;20033;-81
2024/04/05 03:36:33;;;;;;;12.63;5.53;;;;;;;6.78;100.00;92978.56;4882428;29;20052;-79
2024/04/05 03:39:01;;;;;;;12.35;5.55;;;;;;;6.74;100.00;92985.31;4882619;29;20078;-80
2024/04/05 03:41:28;;;;;;;13.32;5.65;;;;;;;6.72;100.00;92982.16;4863460;29;20045;-80
2024/04/05 03:43:55;;;;;;;14.20;6.38;;;;;;;6.72;100.00;92979.56;4881369;29;20033;-80
2024/04/05 03:46:22;;;;;;;17.05;7.03;;;;;;;6.71;100.00;92970.22;4862832;29;20041;-80
2024/04/05 03:48:48;;;;;;;15.15;6.32;;;;;;;6.72;100.00;92976.19;4879603;29;20031;-81
2024/04/05 03:51:14;;;;;;;16.73;6.20;;;;;;;6.71;100.00;92975.41;4878063;29;20083;-78
2024/04/05 03:53:42;;;;;;;11.27;5.70;;;;;;;6.69;100.00;92969.66;4878266;29;20065;-79
2024/04/05 03:56:09;;;;;;;11.02;6.13;;;;;;;6.64;100.00;92965.22;4879350;29;20052;-81
2024/04/05 03:58:35;;;;;;;13.98;6.78;;;;;;;6.63;100.00;92960.25;4863738;29;20117;-80
2024/04/05 04:01:02;;;;;;;11.55;6.60;;;;;;;6.61;100.00;92952.69;4862828;29;20045;-80
2024/04/05 04:03:27;;;;;;;13.00;6.50;;;;;;;6.59;100.00;92946.94;4863123;29;20064;-80
2024/04/05 04:05:55;;;;;;;15.82;6.72;;;;;;;6.61;100.00;92955.28;4880455;29;20037;-80
2024/04/05 04:08:21;;;;;;;12.20;6.57;;;;;;;6.62;100.00;92956.06;4885903;29;20028;-80
2024/04/05 04:10:47;;;;;;;17.35;7.15;;;;;;;6.61;100.00;92957.13;4888069;29;20045;-79
2024/04/05 04:13:14;;;;;;;14.93;6.72;;;;;;;6.62;100.00;92971.69;4879094;29;20033;-81
2024/04/05 04:15:40;;;;;;;11.23;6.32;;;;;;;6.61;100.00;92980.53;4861329;29;20087;-80
2024/04/05 04:18:06;;;;;;;12.75;6.55;;;;;;;6.60;100.00;92989.38;4883426;29;20116;-79
2024/04/05 04:20:34;;;;;;;13.10;6.70;;;;;;;6.58;100.00;92981.03;4884517;29;20076;-81
2024/04/05 04:22:59;;;;;;;13.07;6.25;;;;;;;6.66;100.00;92990.97;4884738;29;20052;-80
2024/04/05 04:25:27;;;;;;;12.88;5.78;;;;;;;6.67;100.00;92995.16;4887314;29;20037;-80
2024/04/05 04:27:53;;;;;;;11.73;6.13;;;;;;;6.68;100.00;92994.88;4870784;29;20058;-80
2024/04/05 04:30:22;;;;;;;15.35;7.35;;;;;;;6.68;100.00;93007.13;4866291;29;20132;-78
2024/04/05 04:32:48;;;;;;;11.88;6.28;;;;;;;6.68;100.00;92996.69;4883033;29;20843;-78
2024/04/05 04:35:20;;;;;;;11.80;5.93;;;;;;;6.66;100.00;92993.56;4866678;29;20036;-79
2024/04/05 04:37:45;;;;;;;13.18;6.30;;;;;;;6.67;100.00;92992.56;4882863;29;20518;-79
2024/04/05 04:40:14;;;;;;;14.70;6.45;;;;;;;6.63;100.00;92992.25;4884818;29;20041;-80
2024/04/05 04:42:40;;;;;;;11.60;6.30;;;;;;;6.65;100.00;93000.59;4886555;29;20139;-80
2024/04/05 04:45:06;;;;;;;14.57;6.35;;;;;;;6.66;100.00;93011.78;4887301;29;20029;-80
2024/04/05 04:47:39;;;;;;;15.20;5.75;;;;;;;6.62;100.00;93006.31;4888194;29;20368;-81
2024/04/05 04:50:05;;;;;;;8.60;5.40;;;;;;;6.60;100.00;93005.00;4854472;29;20041;-80
2024/04/05 04:52:37;;;;;;;13.73;5.40;;;;;;;6.59;100.00;93003.41;4884288;29;20403;-80
2024/04/05 04:55:04;;;;;;;10.32;5.10;;;;;;;6.57;100.00;93001.03;4883683;29;20037;-80
2024/04/05 04:57:32;;;;;;;9.07;5.28;;;;;;;6.56;100.00;92988.31;4884741;29;20112;-80
2024/04/05 04:59:58;;;;;;;14.75;6.18;;;;;;;6.50;100.00;92978.88;4884392;29;20049;-80
2024/04/05 05:02:24;;;;;;;9.40;5.57;;;;;;;6.56;100.00;92989.06;4868761;29;20538;-80
2024/04/05 05:05:05;;;;;;;9.52;5.57;;;;;;;6.60;100.00;93002.38;4885759;29;20044;-78
2024/04/05 05:07:31;;;;;;;12.93;5.60;;;;;;;6.59;100.00;93003.41;4852519;29;20046;-78
2024/04/05 05:09:58;;;;;;;10.93;5.65;;;;;;;6.59;100.00;93003.41;4851296;29;20041;-80
2024/04/05 05:12:23;;;;;;;11.65;5.28;;;;;;;6.58;100.00;92996.66;4864555;29;20452;-80
2024/04/05 05:14:50;;;;;;;13.40;5.50;;;;;;;6.60;100.00;92999.78;4865383;29;20113;-81
2024/04/05 05:17:16;;;;;;;11.30;5.75;;;;;;;6.61;100.00;93003.94;4872378;29;20445;-81
2024/04/05 05:19:42;;;;;;;9.85;5.13;;;;;;;6.62;100.00;93015.91;4861766;29;20485;-82
2024/04/05 05:22:07;;;;;;;13.32;5.20;;;;;;;6.63;100.00;93007.09;4874767;29;20500;-81
2024/04/05 05:24:33;;;;;;;10.38;5.13;;;;;;;6.70;100.00;93005.06;4851362;29;20041;-81
2024/04/05 05:26:59;;;;;;;9.55;4.95;;;;;;;6.77;100.00;93013.41;4880369;29;20109;-81
2024/04/05 05:29:24;;;;;;;9.40;4.78;;;;;;;6.81;100.00;93016.31;4854899;29;20041;-82
2024/04/05 05:31:50;;;;;;;14.40;5.45;;;;;;;6.87;100.00;93010.13;4868858;29;20044;-81
2024/04/05 05:34:15;;;;;;;12.52;5.03;;;;;;;6.91;100.00;93002.59;4875634;29;20029;-81
2024/04/05 05:36:41;;;;;;;9.07;5.22;;;;;;;6.99;100.00;93000.31;4861897;29;20132;-83
2024/04/05 05:39:07;;;;;;;9.63;4.90;;;;;;;7.14;100.00;93010.03;4880678;29;20041;-81
2024/04/05 05:41:32;;;;;;;12.18;5.53;;;;;;;7.34;100.00;93018.97;4846386;29;20047;-81
2024/04/05 05:43:58;;;;;;;15.80;5.25;;;;;;;7.55;100.00;93025.09;4853853;29;20038;-80
2024/04/05 05:46:23;;;;;;;15.75;5.20;;;;;;;7.70;100.00;93025.94;4868077;29;20050;-80
2024/04/05 05:48:49;;;;;;;9.02;4.95;;;;;;;7.86;100.00;93037.22;4853598;29;20052;-81
2024/04/05 05:51:15;;;;;;;8.50;4.90;;;;;;;8.04;100.00;93038.56;4871814;29;20045;-82
2024/04/05 05:53:40;;;;;;;8.82;4.63;;;;;;;8.25;100.00;93047.22;4865026;29;20447;-81
2024/04/05 05:56:07;;;;;;;9.55;4.45;;;;;;;8.43;100.00;93060.88;4878026;29;20140;-80
2024/04/05 05:58:32;;;;;;;10.65;4.32;;;;;;;8.62;100.00;93067.13;4874137;29;20403;-81
2024/04/05 06:01:05;;;;;;;8.98;4.20;;;;;;;8.81;100.00;93062.22;4876216;29;20044;-80
2024/04/05 06:03:32;;;;;;;8.27;4.13;;;;;;;9.04;100.00;93060.13;4864210;29;20053;-80
2024/04/05 06:05:58;;;;;;;8.35;4.13;;;;;;;9.17;100.00;93060.38;4875455;29;20037;-80
2024/04/05 06:08:23;;;;;;;10.45;4.43;;;;;;;9.33;100.00;93063.75;4864680;29;20138;-81
2024/04/05 06:10:56;;;;;;;6.25;3.40;;;;;;;10.06;100.00;93059.09;4867599;29;20124;-80
2024/04/05 06:13:23;;;;;;;11.73;4.45;;;;;;;11.17;100.00;93056.09;4881008;29;20037;-80
2024/04/05 06:15:57;;;;;;;9.63;3.45;;;;;;;11.67;100.00;93054.03;4876190;29;20060;-81
2024/04/05 06:18:27;;;;;;;12.48;3.40;;;;;;;11.78;100.00;93063.34;4876013;29;20048;-80
2024/04/05 06:20:55;;;;;;;11.35;3.80;;;;;;;11.54;100.00;93065.16;4879068;29;20102;-80
2024/04/05 06:23:21;;;;;;;8.52;3.35;;;;;;;11.42;100.00;93073.41;4876502;29;20037;-81
2024/04/05 06:25:56;;;;;;;11.48;3.78;;;;;;;11.29;100.00;93074.84;4860543;29;20041;-82
2024/04/05 06:28:22;;;;;;;10.52;3.70;;;;;;;11.22;100.00;93074.38;4874636;29;20133;-81
2024/04/05 06:30:47;;;;;;;12.02;3.78;;;;;;;11.41;100.00;93069.22;4880258;29;20116;-82
2024/04/05 06:33:13;;;;;;;12.57;4.28;;;;;;;11.53;100.00;93071.47;4863478;29;20037;-82
2024/04/05 06:35:39;;;;;;;9.05;4.00;;;;;;;11.72;100.00;93080.19;4873749;29;20048;-82
2024/04/05 06:38:05;;;;;;;8.70;3.60;;;;;;;12.07;100.00;93067.78;4879339;29;20084;-81
2024/04/05 06:40:31;;;;;;;10.10;4.10;;;;;;;12.65;100.00;93072.81;4860431;29;20082;-82
2024/04/05 06:42:57;;;;;;;6.70;3.33;;;;;;;13.50;100.00;93076.25;4861396;29;20056;-82
2024/04/05 06:45:22;;;;;;;13.35;4.13;;;;;;;13.99;100.00;93086.47;4873521;29;20047;-82
2024/04/05 06:47:49;;;;;;;12.43;3.50;;;;;;;14.40;100.00;93089.06;4870610;29;20045;-81
2024/04/05 06:50:15;;;;;;;11.52;3.30;;;;;;;14.74;100.00;93096.56;4880172;29;20443;-82
2024/04/05 06:52:40;;;;;;;10.00;3.03;;;;;;;15.42;100.00;93101.88;4861314;29;20103;-82
2024/04/05 06:55:08;;;;;;;6.93;2.95;;;;;;;15.65;100.00;93094.75;4880735;29;20037;-81
2024/04/05 06:57:35;;;;;;;5.35;2.70;;;;;;;15.67;100.00;93095.22;4880651;29;20056;-82
2024/04/05 07:00:02;;;;;;;8.57;2.90;;;;;;;16.21;100.00;93097.78;4869232;29;20040;-83
2024/04/05 07:02:28;;;;;;;22.30;4.43;;;;;;;16.72;100.00;93106.94;4854782;29;20395;-82
2024/04/05 07:04:54;;;;;;;12.10;3.47;;;;;;;16.21;100.00;93098.59;4873396;29;20043;-83
2024/04/05 07:07:19;;;;;;;9.13;3.22;;;;;;;15.69;100.00;93098.31;4882879;29;20040;-82
2024/04/05 07:09:45;;;;;;;9.95;3.38;;;;;;;14.75;100.00;93099.97;4883422;29;20045;-81
2024/04/05 07:12:11;;;;;;;17.75;4.72;;;;;;;14.69;100.00;93099.31;4879964;29;20045;-83
2024/04/05 07:14:37;;;;;;;10.13;3.20;;;;;;;14.08;100.00;93103.13;4871976;29;20037;-81
2024/04/05 07:17:03;;;;;;;12.10;3.47;;;;;;;13.46;100.00;93093.69;4861988;29;20128;-82
2024/04/05 07:19:29;;;;;;;14.60;3.75;;;;;;;12.92;100.00;93100.28;4878590;29;20044;-81
2024/04/05 07:21:55;;;;;;;13.88;3.90;;;;;;;13.01;100.00;93100.41;4880896;29;20143;-81
2024/04/05 07:24:21;;;;;;;18.17;4.00;;;;;;;12.97;100.00;93102.84;4877012;29;20073;-81
2024/04/05 07:26:47;;;;;;;10.00;3.72;;;;;;;13.18;100.00;93111.19;4875421;29;20037;-81
2024/04/05 07:29:12;;;;;;;13.15;3.72;;;;;;;13.29;100.00;93119.75;4851862;29;20048;-81
2024/04/05 07:31:38;;;;;;;10.48;3.67;;;;;;;13.38;100.00;93125.91;4871807;29;20049;-81
2024/04/05 07:34:05;;;;;;;9.35;3.58;;;;;;;13.20;100.00;93124.84;4873214;29;20057;-81
2024/04/05 07:36:32;;;;;;;9.07;3.15;;;;;;;13.28;100.00;93126.06;4885254;29;20033;-81
2024/04/05 07:38:58;;;;;;;9.75;3.65;;;;;;;13.15;100.00;93122.28;4860949;29;20044;-81
2024/04/05 07:41:24;;;;;;;10.00;3.80;;;;;;;13.01;100.00;93124.06;4877556;29;20123;-81
2024/04/05 07:43:50;;;;;;;9.57;3.75;;;;;;;12.92;100.00;93137.06;4876914;29;20037;-80
2024/04/05 07:46:15;;;;;;;11.63;3.92;;;;;;;12.92;100.00;93129.19;4857402;29;20454;-81
2024/04/05 07:48:42;;;;;;;15.15;3.63;;;;;;;12.86;100.00;93123.22;4856086;29;20143;-81
2024/04/05 07:51:10;;;;;;;7.88;3.58;;;;;;;13.07;100.00;93131.59;4863113;29;20044;-81
2024/04/05 07:53:36;;;;;;;6.63;3.20;;;;;;;12.88;100.00;93128.97;4879415;29;20116;-81
2024/04/05 07:56:04;;;;;;;9.25;3.55;;;;;;;12.87;100.00;93126.63;4860297;29;20112;-80
2024/04/05 07:58:30;;;;;;;11.50;4.75;;;;;;;12.76;100.00;93120.72;4842279;29;20053;-81
2024/04/05 08:00:56;;;;;;;11.98;3.92;;;;;;;12.89;100.00;93120.03;4868404;29;20055;-81
2024/04/05 08:03:22;;;;;;;10.88;4.03;;;;;;;12.87;100.00;93124.00;4841475;29;20045;-81
2024/04/05 08:05:48;;;;;;;10.02;3.67;;;;;;;12.82;100.00;93130.09;4855473;29;20044;-81
2024/04/05 08:08:14;;;;;;;7.35;3.38;;;;;;;12.99;100.00;93134.06;4878673;29;20164;-80
2024/04/05 08:10:40;;;;;;;5.28;2.50;;;;;;;12.83;100.00;93128.25;4845677;29;20086;-81
2024/04/05 08:13:05;;;;;;;12.30;3.90;;;;;;;12.73;100.00;93126.56;4857050;29;20056;-80
2024/04/05 08:15:31;;;;;;;9.35;3.85;;;;;;;12.71;100.00;93129.44;4878393;29;20052;-80
2024/04/05 08:17:58;;;;;;;15.02;4.82;;;;;;;12.47;100.00;93128.72;4858564;29;20025;-80
2024/04/05 08:20:24;;;;;;;13.77;4.45;;;;;;;12.55;100.00;93128.09;4877452;29;20041;-81
2024/04/05 08:22:49;;;;;;;10.18;4.32;;;;;;;12.83;100.00;93138.75;4871062;29;20033;-81
2024/04/05 08:25:16;;;;;;;8.48;4.00;;;;;;;13.00;100.00;93140.91;4877322;29;20039;-82
2024/04/05 08:27:45;;;;;;;13.93;4.30;;;;;;;13.01;100.00;93143.22;4875918;29;20062;-81
2024/04/05 08:30:18;;;;;;;8.38;3.80;;;;;;;13.24;100.00;93146.06;4876825;29;20048;-82
2024/04/05 08:32:44;;;;;;;8.80;3.70;;;;;;;13.03;100.00;93154.25;4857510;29;20065;-81
2024/04/05 08:35:13;;;;;;;8.50;3.90;;;;;;;13.12;100.00;93160.41;4873504;29;20048;-81
2024/04/05 08:37:39;;;;;;;10.00;3.72;;;;;;;13.17;100.00;93164.06;4865057;29;20037;-81
2024/04/05 08:40:07;;;;;;;8.15;3.60;;;;;;;13.16;100.00;93154.63;4860099;29;20061;-80
2024/04/05 08:42:34;;;;;;;12.30;5.00;;;;;;;13.29;100.00;93161.81;4876343;29;20068;-80
2024/04/05 08:45:03;;;;;;;8.35;3.80;;;;;;;13.28;100.00;93160.22;4877072;29;20463;-80
2024/04/05 08:47:33;;;;;;;8.52;3.22;;;;;;;13.47;100.00;93162.84;4877302;29;20072;-80
2024/04/05 08:50:01;;;;;;;9.70;3.47;;;;;;;13.37;100.00;93158.50;4868083;29;20041;-80
2024/04/05 08:52:27;;;;;;;10.60;3.55;;;;;;;13.43;100.00;93159.22;4872671;29;20388;-81
2024/04/05 08:54:55;;;;;;;9.35;3.20;;;;;;;13.17;100.00;93158.78;4873674;29;20080;-80
2024/04/05 08:57:28;;;;;;;6.40;3.15;;;;;;;13.19;100.00;93164.53;4858974;29;20610;-81
2024/04/05 08:59:55;;;;;;;7.38;3.45;;;;;;;13.43;100.00;93162.63;4882430;29;20041;-81
2024/04/05 09:02:23;;;;;;;11.30;3.40;;;;;;;13.59;100.00;93171.06;4855162;29;20033;-81
2024/04/05 09:04:51;;;;;;;4.03;2.50;;;;;;;13.49;100.00;93165.97;4877266;29;20092;-81
2024/04/05 09:07:17;;;;;;;8.40;3.40;;;;;;;13.43;100.00;93170.53;4872250;29;20045;-81
2024/04/05 09:09:46;;;;;;;6.70;3.15;;;;;;;13.77;100.00;93174.72;4877110;29;20041;-80
2024/04/05 09:12:14;;;;;;;7.45;3.42;;;;;;;13.82;100.00;93166.75;4869302;29;20505;-80
2024/04/05 09:14:41;;;;;;;9.30;3.25;;;;;;;13.80;100.00;93178.63;4870167;29;20053;-80
2024/04/05 09:17:17;;;;;;;5.57;2.90;;;;;;;13.63;100.00;93179.94;4878621;29;20368;-80
2024/04/05 09:19:43;;;;;;;11.55;2.75;;;;;;;14.00;100.00;93185.41;4860358;29;20048;-81
2024/04/05 09:22:24;;;;;;;7.65;2.88;;;;;;;14.00;100.00;93180.91;4845416;29;20558;-80
2024/04/05 09:25:03;;;;;;;6.20;3.22;;;;;;;13.56;100.00;93181.41;4879153;29;20037;-81
2024/04/05 09:27:30;;;;;;;8.52;3.30;;;;;;;13.61;100.00;93176.81;4871065;29;20471;-82
2024/04/05 09:30:05;;;;;;;9.20;3.40;;;;;;;13.48;100.00;93188.84;4879020;29;20041;-81
2024/04/05 09:32:32;;;;;;;7.60;2.97;;;;;;;13.39;100.00;93195.81;4876740;29;20044;-81
2024/04/05 09:34:57;;;;;;;8.23;3.42;;;;;;;13.27;100.00;93193.59;4871838;29;20430;-82
2024/04/05 09:37:26;;;;;;;7.68;3.58;;;;;;;13.22;100.00;93185.03;4843481;29;20072;-82
2024/04/05 09:39:52;;;;;;;7.40;3.30;;;;;;;13.20;100.00;93192.41;4873779;29;20450;-83
2024/04/05 09:42:22;;;;;;;11.75;3.90;;;;;;;13.55;100.00;93193.75;4853964;29;20748;-82
2024/04/05 09:44:55;;;;;;;12.00;3.78;;;;;;;13.55;100.00;93193.75;4873497;29;20041;-80
2024/04/05 09:47:29;;;;;;;13.05;3.53;;;;;;;13.90;100.00;93195.03;4872046;29;20065;-81
2024/04/05 09:49:55;;;;;;;10.25;2.92;;;;;;;13.77;100.00;93195.78;4858944;29;20049;-81
2024/04/05 09:52:27;;;;;;;8.07;3.38;;;;;;;14.03;100.00;93214.56;4876230;29;20406;-80
2024/04/05 09:54:55;;;;;;;6.50;3.25;;;;;;;14.28;100.00;93210.72;4876596;29;20523;-80
2024/04/05 09:57:21;;;;;;;9.43;3.38;;;;;;;14.33;100.00;93213.25;4878947;29;20059;-81
2024/04/05 09:59:50;;;;;;;10.40;3.47;;;;;;;14.54;100.00;93207.59;4869457;29;20053;-81
2024/04/05 10:02:18;;;;;;;7.55;3.47;;;;;;;14.98;100.00;93219.44;4863800;29;20451;-81
2024/04/05 10:04:46;;;;;;;7.30;3.28;;;;;;;14.58;100.00;93211.25;4867188;29;20040;-81
2024/04/05 10:07:12;;;;;;;7.82;3.05;;;;;;;14.40;100.00;93214.72;4872925;29;20033;-81
2024/04/05 10:09:39;;;;;;;14.23;3.80;;;;;;;14.23;100.00;93216.06;4872850;29;20084;-80
2024/04/05 10:12:17;;;;;;;14.00;3.75;;;;;;;14.26;100.00;93212.84;4875913;29;20033;-81
2024/04/05 10:14:53;;;;;;;11.82;3.65;;;;;;;14.38;100.00;93215.00;4872845;29;20059;-81
2024/04/05 10:17:27;;;;;;;14.20;2.70;;;;;;;14.32;100.00;93216.16;4875130;29;20025;-80
2024/04/05 10:20:03;;;;;;;9.00;3.22;;;;;;;13.94;100.00;93217.09;4874463;29;20057;-79
2024/04/05 10:22:29;;;;;;;11.30;3.45;;;;;;;13.81;100.00;93219.69;4865077;29;20605;-81
2024/04/05 10:24:55;;;;;;;9.80;3.05;;;;;;;13.67;100.00;93215.16;4869707;29;20049;-80
2024/04/05 10:27:23;;;;;;;6.95;3.45;;;;;;;13.68;100.00;93213.28;4874708;29;20040;-80
2024/04/05 10:30:03;;;;;;;5.68;2.35;;;;;;;13.98;100.00;93213.88;4869463;29;20049;-80
2024/04/05 10:32:29;;;;;;;10.15;3.90;;;;;;;14.03;100.00;93211.16;4863916;29;20623;-80
2024/04/05 10:35:09;;;;;;;10.00;3.17;;;;;;;14.34;100.00;93203.47;4878248;29;20029;-81
2024/04/05 10:37:38;;;;;;;9.52;3.55;;;;;;;14.73;100.00;93197.78;4870173;29;20055;-83
2024/04/05 10:40:12;;;;;;;9.07;2.17;;;;;;;14.40;100.00;93201.56;4875814;29;20041;-79
2024/04/05 10:42:41;;;;;;;15.52;4.13;;;;;;;14.05;100.00;93195.84;4869894;29;20053;-79
2024/04/05 10:45:07;;;;;;;9.80;3.00;;;;;;;13.72;100.00;93193.22;4871024;29;20491;-80
2024/04/05 10:47:35;;;;;;;7.93;3.75;;;;;;;13.51;100.00;93193.56;4850512;29;20114;-80
2024/04/05 10:50:05;;;;;;;8.23;3.00;;;;;;;13.58;100.00;93197.66;4875390;29;20033;-79
2024/04/05 10:52:33;;;;;;;7.35;2.67;;;;;;;13.55;100.00;93193.75;4870760;29;20419;-80
2024/04/05 10:55:12;;;;;;;9.50;3.10;;;;;;;13.39;100.00;93190.56;4866443;29;20104;-80
2024/04/05 10:57:38;;;;;;;11.82;3.38;;;;;;;13.44;100.00;93176.56;4850830;29;20073;-80
2024/04/05 11:00:11;;;;;;;9.68;3.28;;;;;;;13.51;100.00;93183.03;4857401;29;20073;-79
2024/04/05 11:02:43;;;;;;;5.90;2.53;;;;;;;14.02;100.00;93176.13;4860814;29;20104;-79
2024/04/05 11:05:13;;;;;;;8.38;2.97;;;;;;;14.08;100.00;93175.00;4872560;29;20044;-80
2024/04/05 11:07:42;;;;;;;7.10;3.10;;;;;;;14.34;100.00;93167.41;4865932;29;20038;-80
2024/04/05 11:10:19;;;;;;;6.85;2.83;;;;;;;14.31;100.00;93165.34;4872952;29;20041;-80
2024/04/05 11:12:46;;;;;;;4.63;2.17;;;;;;;14.49;100.00;93170.81;4868237;29;20049;-81
2024/04/05 11:15:17;;;;;;;8.75;2.78;;;;;;;14.69;100.00;93170.44;4880239;29;20045;-81
2024/04/05 11:17:43;;;;;;;8.00;3.70;;;;;;;14.49;100.00;93176.88;4870628;29;20033;-81
2024/04/05 11:20:13;;;;;;;13.13;3.28;;;;;;;14.64;100.00;93160.03;4850565;29;20553;-80
2024/04/05 11:22:42;;;;;;;8.23;2.63;;;;;;;14.60;100.00;93164.31;4870296;29;20484;-79
2024/04/05 11:25:08;;;;;;;8.38;3.28;;;;;;;14.33;100.00;93165.06;4874715;29;20094;-81